Back to Top

Language: 

My Weather Underground Personal Weather Station Historical Data with Graphs...

Delerius Weather Station Historical Data
 
Daily Summary for November 18, 2017 Units:  Metric    English   Both
« Previous Day
Next Day »
Daily Weekly Monthly Yearly Custom
  Current: High: Low: Average:
Temperature: 7.4 °C 7.6 °C 5.9 °C 6.7 °C
Dew Point: 5.2 °C 5.3 °C 3.5 °C 4.2 °C
Humidity: 86 % 86 % 83 % 85 %
Wind Speed: 6.4 km/h 29 km/h 6.4 km/h 20 km/h
Wind Gust: 14.5 km/h 45.1 km/h - -
Wind:West - - West
Pressure: 1019.2 hPa 1021.9 hPa 1019.2 hPa -
Precipitation: 0 mm      
Historical Graphs
 
 
Tabular Data for November 18, 2017
Time Temperature Dew Point Pressure Wind Wind Speed Wind Gust Humidity Rainfall Rate (Hourly) solar Conditions
00:02 5.9 °C 3.6 °C 1021.9 hPa WNW 24.1 km/h 33.8 km/h 85 % 0 mm 0 W/m2
00:07 5.9 °C 3.6 °C 1021.9 hPa West 22.5 km/h 35.4 km/h 85 % 0 mm 0 W/m2
00:12 5.9 °C 3.6 °C 1021.9 hPa WNW 24.1 km/h 37 km/h 85 % 0 mm 0 W/m2
00:17 5.9 °C 3.6 °C 1021.9 hPa West 25.7 km/h 45.1 km/h 85 % 0 mm 0 W/m2
00:22 6 °C 3.7 °C 1021.9 hPa WNW 27.4 km/h 38.6 km/h 85 % 0 mm 0 W/m2
00:27 6 °C 3.5 °C 1021.6 hPa West 24.1 km/h 38.6 km/h 84 % 0 mm 0 W/m2
00:32 6.1 °C 3.6 °C 1021.6 hPa West 24.1 km/h 38.6 km/h 84 % 0 mm 0 W/m2
00:37 6.1 °C 3.6 °C 1021.6 hPa West 29 km/h 43.5 km/h 84 % 0 mm 0 W/m2
00:42 6.2 °C 3.7 °C 1021.2 hPa West 24.1 km/h 35.4 km/h 84 % 0 mm 0 W/m2
00:47 6.2 °C 3.7 °C 1021.6 hPa West 24.1 km/h 37 km/h 84 % 0 mm 0 W/m2
00:52 6.2 °C 3.7 °C 1021.2 hPa West 25.7 km/h 41.8 km/h 84 % 0 mm 0 W/m2
00:57 6.2 °C 3.7 °C 1021.2 hPa West 25.7 km/h 40.2 km/h 84 % 0 mm 0 W/m2
01:02 6.3 °C 3.8 °C 1021.2 hPa West 22.5 km/h 37 km/h 84 % 0 mm 0 W/m2
01:07 6.2 °C 3.7 °C 1021.6 hPa West 24.1 km/h 40.2 km/h 84 % 0 mm 0 W/m2
01:12 6.2 °C 3.7 °C 1021.6 hPa West 24.1 km/h 35.4 km/h 84 % 0 mm 0 W/m2
01:17 6.2 °C 3.7 °C 1021.2 hPa West 24.1 km/h 38.6 km/h 84 % 0 mm 0 W/m2
01:22 6.1 °C 3.6 °C 1021.2 hPa West 22.5 km/h 35.4 km/h 84 % 0 mm 0 W/m2
01:27 6.1 °C 3.6 °C 1021.2 hPa WNW 24.1 km/h 38.6 km/h 84 % 0 mm 0 W/m2
01:32 6.1 °C 3.6 °C 1021.2 hPa West 22.5 km/h 37 km/h 84 % 0 mm 0 W/m2
01:37 6.1 °C 3.8 °C 1021.2 hPa West 20.9 km/h 32.2 km/h 85 % 0 mm 0 W/m2
01:42 6.1 °C 3.8 °C 1021.2 hPa West 19.3 km/h 30.6 km/h 85 % 0 mm 0 W/m2
01:47 6.1 °C 3.8 °C 1021.2 hPa West 19.3 km/h 25.7 km/h 85 % 0 mm 0 W/m2
01:52 6.1 °C 3.8 °C 1021.2 hPa West 16.1 km/h 29 km/h 85 % 0 mm 0 W/m2
01:57 6.1 °C 3.8 °C 1021.2 hPa West 22.5 km/h 43.5 km/h 85 % 0 mm 0 W/m2
02:02 6.1 °C 3.8 °C 1021.2 hPa West 20.9 km/h 35.4 km/h 85 % 0 mm 0 W/m2
02:07 6.1 °C 3.8 °C 1021.2 hPa WNW 22.5 km/h 38.6 km/h 85 % 0 mm 0 W/m2
02:12 6 °C 3.7 °C 1020.9 hPa West 22.5 km/h 40.2 km/h 85 % 0 mm 0 W/m2
02:17 6.1 °C 3.8 °C 1020.9 hPa West 24.1 km/h 35.4 km/h 85 % 0 mm 0 W/m2
02:18 6.1 °C 3.8 °C 1020.9 hPa West 24.1 km/h 35.4 km/h 85 % 0 mm 0 W/m2
02:23 6.2 °C 4.1 °C 1020.9 hPa West 25.7 km/h 40.2 km/h 86 % 0 mm 0 W/m2
02:28 6.3 °C 3.9 °C 1020.9 hPa West 22.5 km/h 33.8 km/h 85 % 0 mm 0 W/m2
02:33 6.5 °C 4.2 °C 1020.9 hPa West 25.7 km/h 37 km/h 85 % 0 mm 0 W/m2
02:38 6.6 °C 4.3 °C 1020.5 hPa West 22.5 km/h 40.2 km/h 85 % 0 mm 0 W/m2
02:43 6.6 °C 4.1 °C 1020.5 hPa West 24.1 km/h 38.6 km/h 84 % 0 mm 0 W/m2
02:48 6.6 °C 4.1 °C 1020.5 hPa West 25.7 km/h 37 km/h 84 % 0 mm 0 W/m2
02:53 6.7 °C 4.2 °C 1020.5 hPa West 25.7 km/h 41.8 km/h 84 % 0 mm 0 W/m2
02:58 6.7 °C 4.2 °C 1020.5 hPa West 22.5 km/h 38.6 km/h 84 % 0 mm 0 W/m2
03:03 6.7 °C 4 °C 1020.5 hPa West 25.7 km/h 40.2 km/h 83 % 0 mm 0 W/m2
03:08 6.8 °C 4.1 °C 1020.5 hPa West 19.3 km/h 33.8 km/h 83 % 0 mm 0 W/m2
03:13 6.8 °C 4.1 °C 1020.5 hPa West 20.9 km/h 33.8 km/h 83 % 0 mm 0 W/m2
03:20 6.8 °C 4.3 °C 1020.2 hPa West 22.5 km/h 35.4 km/h 84 % 0 mm 0 W/m2
03:22 6.8 °C 4.3 °C 1020.2 hPa West 20.9 km/h 32.2 km/h 84 % 0 mm 0 W/m2
03:24 6.8 °C 4.3 °C 1020.2 hPa West 19.3 km/h 33.8 km/h 84 % 0 mm 0 W/m2
03:26 6.7 °C 4.2 °C 1020.2 hPa West 22.5 km/h 38.6 km/h 84 % 0 mm 0 W/m2
03:31 6.8 °C 4.3 °C 1020.2 hPa West 24.1 km/h 41.8 km/h 84 % 0 mm 0 W/m2
03:36 6.8 °C 4.3 °C 1020.2 hPa West 20.9 km/h 30.6 km/h 84 % 0 mm 0 W/m2
03:46 6.8 °C 4.4 °C 1020.2 hPa West 17.7 km/h 30.6 km/h 85 % 0 mm 0 W/m2
03:51 6.8 °C 4.4 °C 1020.2 hPa West 17.7 km/h 30.6 km/h 85 % 0 mm 0 W/m2
03:56 6.8 °C 4.4 °C 1020.2 hPa West 16.1 km/h 22.5 km/h 85 % 0 mm 0 W/m2
04:01 6.8 °C 4.4 °C 1020.2 hPa West 22.5 km/h 35.4 km/h 85 % 0 mm 0 W/m2
04:06 6.9 °C 4.6 °C 1020.2 hPa West 17.7 km/h 24.1 km/h 85 % 0 mm 0 W/m2
04:11 6.9 °C 4.6 °C 1020.2 hPa West 19.3 km/h 29 km/h 85 % 0 mm 0 W/m2
04:16 7 °C 4.7 °C 1020.2 hPa West 22.5 km/h 38.6 km/h 85 % 0 mm 0 W/m2
04:21 7.1 °C 4.6 °C 1020.2 hPa West 19.3 km/h 30.6 km/h 84 % 0 mm 0 W/m2
04:26 7.2 °C 4.7 °C 1019.9 hPa WSW 19.3 km/h 35.4 km/h 84 % 0 mm 0 W/m2
04:31 7.2 °C 4.7 °C 1019.9 hPa WSW 20.9 km/h 32.2 km/h 84 % 0 mm 0 W/m2
04:34 7.2 °C 4.7 °C 1019.9 hPa WSW 17.7 km/h 25.7 km/h 84 % 0 mm 0 W/m2
04:39 7.2 °C 4.7 °C 1019.9 hPa WSW 17.7 km/h 24.1 km/h 84 % 0 mm 0 W/m2
04:44 7.2 °C 4.7 °C 1019.9 hPa WSW 17.7 km/h 25.7 km/h 84 % 0 mm 0 W/m2
04:49 7.3 °C 4.8 °C 1019.9 hPa WSW 19.3 km/h 30.6 km/h 84 % 0 mm 0 W/m2
04:54 7.3 °C 4.8 °C 1019.9 hPa WSW 14.5 km/h 22.5 km/h 84 % 0 mm 0 W/m2
04:59 7.3 °C 4.8 °C 1019.9 hPa WSW 19.3 km/h 30.6 km/h 84 % 0 mm 0 W/m2
05:04 7.3 °C 4.8 °C 1019.9 hPa WSW 11.3 km/h 20.9 km/h 84 % 0 mm 0 W/m2
05:09 7.4 °C 4.9 °C 1019.5 hPa WSW 9.7 km/h 16.1 km/h 84 % 0 mm 0 W/m2
05:15 7.4 °C 4.9 °C 1019.5 hPa WSW 12.9 km/h 17.7 km/h 84 % 0 mm 0 W/m2
05:20 7.4 °C 4.9 °C 1019.5 hPa SW 12.9 km/h 19.3 km/h 84 % 0 mm 0 W/m2
05:25 7.4 °C 4.9 °C 1019.5 hPa WSW 12.9 km/h 19.3 km/h 84 % 0 mm 0 W/m2
05:30 7.4 °C 4.9 °C 1019.5 hPa WSW 14.5 km/h 22.5 km/h 84 % 0 mm 0 W/m2
05:35 7.5 °C 5.2 °C 1019.5 hPa West 12.9 km/h 24.1 km/h 85 % 0 mm 0 W/m2
05:40 7.6 °C 5.2 °C 1019.5 hPa West 8 km/h 17.7 km/h 85 % 0 mm 0 W/m2
05:45 7.5 °C 5.2 °C 1019.5 hPa West 8 km/h 16.1 km/h 85 % 0 mm 0 W/m2
05:50 7.6 °C 5.2 °C 1019.5 hPa West 9.7 km/h 12.9 km/h 85 % 0 mm 0 W/m2
05:55 7.5 °C 5.3 °C 1019.5 hPa WSW 11.3 km/h 17.7 km/h 86 % 0 mm 0 W/m2
06:00 7.5 °C 5.3 °C 1019.2 hPa WSW 11.3 km/h 20.9 km/h 86 % 0 mm 0 W/m2
06:05 7.5 °C 5.3 °C 1019.2 hPa West 11.3 km/h 17.7 km/h 86 % 0 mm 0 W/m2
06:10 7.4 °C 5.2 °C 1019.2 hPa West 6.4 km/h 14.5 km/h 86 % 0 mm 0 W/m2
Delerius-Weather
Compliments of Weather Underground - 1.25 mb

Data updates at regular intervals.